createdAt,value
2023-02-13T00:04:07.560Z,100
2023-02-13T00:09:10.884Z,100
2023-02-13T00:14:07.313Z,100
2023-02-13T00:19:11.792Z,100
2023-02-13T00:24:07.639Z,100
2023-02-13T00:29:07.125Z,100
2023-02-13T00:34:07.258Z,100
2023-02-13T00:39:07.173Z,100
2023-02-13T00:44:07.123Z,100
2023-02-13T00:49:07.338Z,100
2023-02-13T00:54:07.061Z,100
2023-02-13T00:59:12.732Z,100
2023-02-13T01:04:09.917Z,100
2023-02-13T01:09:08.725Z,100
2023-02-13T01:14:07.407Z,100
2023-02-13T01:19:11.799Z,100
2023-02-13T01:24:10.420Z,100
2023-02-13T01:29:07.138Z,100
2023-02-13T01:34:07.499Z,100
2023-02-13T01:39:12.537Z,100
2023-02-13T01:44:20.249Z,100
2023-02-13T01:49:10.675Z,100
2023-02-13T01:54:09.802Z,100
2023-02-13T01:59:09.821Z,100
2023-02-13T02:04:13.786Z,100
2023-02-13T02:09:16.722Z,100
2023-02-13T02:14:07.494Z,100
2023-02-13T02:19:09.516Z,100
2023-02-13T02:24:30.040Z,100
2023-02-13T02:29:22.591Z,100
2023-02-13T02:34:14.030Z,100
2023-02-13T02:39:14.012Z,100
2023-02-13T02:44:11.759Z,100
2023-02-13T02:49:20.012Z,100
2023-02-13T02:54:24.294Z,100
2023-02-13T02:59:22.121Z,100
2023-02-13T03:04:21.737Z,100
2023-02-13T03:09:21.237Z,100
2023-02-13T03:14:11.038Z,100
2023-02-13T03:19:22.470Z,100
2023-02-13T03:24:15.661Z,100
2023-02-13T03:29:26.309Z,100
2023-02-13T03:34:08.625Z,100
2023-02-13T03:39:11.203Z,100
2023-02-13T03:44:13.266Z,100
2023-02-13T03:49:19.697Z,100
2023-02-13T03:54:11.804Z,100
2023-02-13T03:59:24.738Z,100
2023-02-13T04:04:13.091Z,100
2023-02-13T04:09:07.026Z,100
2023-02-13T04:14:09.738Z,100
2023-02-13T04:19:07.523Z,100
2023-02-13T04:24:07.097Z,100
2023-02-13T04:29:07.571Z,100
2023-02-13T04:34:07.359Z,100
2023-02-13T04:39:09.748Z,100
2023-02-13T04:44:08.581Z,100
2023-02-13T04:49:07.151Z,100
2023-02-13T04:54:06.952Z,100
2023-02-13T04:59:06.985Z,100
2023-02-13T05:04:07.155Z,100
2023-02-13T05:09:07.028Z,100
2023-02-13T05:14:08.603Z,100
2023-02-13T05:19:07.034Z,100
2023-02-13T05:24:06.975Z,100
2023-02-13T05:29:18.732Z,100
2023-02-13T05:34:07.185Z,100
2023-02-13T05:39:07.408Z,100
2023-02-13T05:44:07.156Z,100
2023-02-13T05:49:10.809Z,100
2023-02-13T05:54:14.928Z,100
2023-02-13T05:59:07.099Z,100
2023-02-13T06:04:07.993Z,100
2023-02-13T06:09:07.212Z,100
2023-02-13T06:14:07.158Z,100
2023-02-13T06:19:07.198Z,100
2023-02-13T06:24:09.717Z,100
2023-02-13T06:29:09.303Z,100
2023-02-13T06:34:07.837Z,100
2023-02-13T06:39:08.632Z,100
2023-02-13T06:44:07.610Z,100
2023-02-13T06:49:06.941Z,100
2023-02-13T06:54:06.959Z,100
2023-02-13T06:59:09.569Z,100
2023-02-13T07:04:07.030Z,100
2023-02-13T07:09:07.349Z,100
2023-02-13T07:14:09.583Z,100
2023-02-13T07:19:10.272Z,100
2023-02-13T07:24:08.119Z,100
2023-02-13T07:29:11.661Z,100
2023-02-13T07:34:07.092Z,100
2023-02-13T07:39:07.114Z,100
2023-02-13T07:44:09.484Z,100
2023-02-13T07:49:07.453Z,100
2023-02-13T07:54:07.193Z,100
2023-02-13T07:59:07.953Z,100
2023-02-13T08:04:07.353Z,100
2023-02-13T08:09:27.679Z,100
2023-02-13T08:14:12.724Z,100
2023-02-13T08:19:07.289Z,100
2023-02-13T08:24:07.090Z,100
2023-02-13T08:29:07.025Z,100
2023-02-13T08:34:06.938Z,100
2023-02-13T08:39:07.652Z,100
2023-02-13T08:44:06.889Z,100
2023-02-13T08:49:07.230Z,100
2023-02-13T08:54:17.341Z,100
2023-02-13T08:59:06.997Z,100
2023-02-13T09:04:07.324Z,100
2023-02-13T09:09:08.389Z,99.92285
2023-02-13T09:14:06.864Z,99.7832
2023-02-13T09:19:07.071Z,99.73047
2023-02-13T09:24:10.504Z,99.62695
2023-02-13T09:29:07.151Z,99.47363
2023-02-13T09:34:06.940Z,99.45605
2023-02-13T09:39:08.147Z,99.25195
2023-02-13T09:44:09.805Z,99.1582
2023-02-13T09:49:11.236Z,99.00684
2023-02-13T09:54:08.764Z,98.84668
2023-02-13T09:59:13.082Z,98.77637
2023-02-13T10:04:30.392Z,98.5
2023-02-13T10:09:10.488Z,98.50586
2023-02-13T10:14:16.864Z,98.13281
2023-02-13T10:19:07.866Z,97.93945
2023-02-13T10:24:10.436Z,97.72656
2023-02-13T10:29:21.585Z,97.54102
2023-02-13T10:34:11.331Z,97.29688
2023-02-13T10:39:17.053Z,97.35449
2023-02-13T10:44:19.207Z,96.76172
2023-02-13T10:49:24.847Z,96.51855
2023-02-13T10:54:19.018Z,96.27441
2023-02-13T10:59:17.869Z,96.05957
2023-02-13T11:04:09.751Z,95.55566
2023-02-13T11:09:13.182Z,95.2002
2023-02-13T11:14:22.962Z,94.49316
2023-02-13T11:19:07.031Z,94.86719
2023-02-13T11:24:07.117Z,94.40625
2023-02-13T11:29:09.747Z,94.33691
2023-02-13T11:34:16.822Z,93.61426
2023-02-13T11:39:15.239Z,93.30957
2023-02-13T11:44:07.991Z,93.83301
2023-02-13T11:49:09.232Z,93.71094
2023-02-13T11:54:11.334Z,92.59863
2023-02-13T11:59:08.618Z,92.30469
2023-02-13T12:04:11.229Z,91.91309
2023-02-13T12:09:08.044Z,92.2334
2023-02-13T12:14:07.102Z,91.34766
2023-02-13T12:19:08.805Z,92.37891
2023-02-13T12:24:14.005Z,91.08105
2023-02-13T12:29:22.759Z,91.83984
2023-02-13T12:34:20.780Z,90.84375
2023-02-13T12:39:16.595Z,90.88965
2023-02-13T12:44:19.051Z,90.61523
2023-02-13T12:49:12.263Z,90.2168
2023-02-13T12:54:20.684Z,89.78906
2023-02-13T12:59:16.584Z,90.19727
2023-02-13T13:04:16.209Z,89.12695
2023-02-13T13:09:29.391Z,88.61719
2023-02-13T13:14:13.445Z,88.48145
2023-02-13T13:19:11.898Z,88.69434
2023-02-13T13:24:09.512Z,88.35742
2023-02-13T13:29:09.515Z,88.20313
2023-02-13T13:34:10.014Z,87.80566
2023-02-13T13:39:10.367Z,89.66992
2023-02-13T13:44:20.330Z,87.69824
2023-02-13T13:49:14.541Z,87.35156
2023-02-13T13:54:33.412Z,86.81445
2023-02-13T13:59:06.840Z,86.875
2023-02-13T14:04:18.163Z,86.76172
2023-02-13T14:09:09.408Z,86.70508
2023-02-13T14:14:16.833Z,86.99219
2023-02-13T14:19:07.878Z,87.26855
2023-02-13T14:24:15.327Z,87.9541
2023-02-13T14:29:17.553Z,88.36523
2023-02-13T14:34:09.012Z,88.05762
2023-02-13T14:39:10.375Z,87.81738
2023-02-13T14:44:09.827Z,87.56543
2023-02-13T14:49:10.577Z,87.68652
2023-02-13T14:54:09.002Z,88.29102
2023-02-13T14:59:14.225Z,89.1123
2023-02-13T15:04:10.228Z,89.19043
2023-02-13T15:09:09.904Z,88.99707
2023-02-13T15:14:18.208Z,89.35059
2023-02-13T15:19:07.045Z,89.5918
2023-02-13T15:24:07.302Z,89.94629
2023-02-13T15:29:14.138Z,90.17773
2023-02-13T15:34:07.225Z,89.97363
2023-02-13T15:39:10.745Z,89.96387
2023-02-13T15:44:07.830Z,89.73145
2023-02-13T15:49:10.351Z,89.60254
2023-02-13T15:54:11.353Z,89.11914
2023-02-13T15:59:10.041Z,89.58398
2023-02-13T16:04:14.878Z,90.59961
2023-02-13T16:09:09.927Z,94.25195
2023-02-13T16:14:18.835Z,96.19727
2023-02-13T16:19:07.051Z,97.41113
2023-02-13T16:24:11.691Z,97.96191
2023-02-13T16:29:14.083Z,99.98535
2023-02-13T16:34:19.802Z,100
2023-02-13T16:39:14.336Z,100
2023-02-13T16:44:07.456Z,100
2023-02-13T16:49:18.483Z,100
2023-02-13T16:54:09.544Z,100
2023-02-13T16:59:23.820Z,100
2023-02-13T17:04:14.062Z,100
2023-02-13T17:09:11.898Z,100
2023-02-13T17:14:12.130Z,100
2023-02-13T17:19:07.113Z,100
2023-02-13T17:24:07.033Z,100
2023-02-13T17:29:06.987Z,100
2023-02-13T17:34:06.923Z,100
2023-02-13T17:39:15.773Z,100
2023-02-13T17:44:07.008Z,100
2023-02-13T17:49:08.620Z,100
2023-02-13T17:54:09.149Z,100
2023-02-13T17:59:06.897Z,100
2023-02-13T18:04:11.649Z,100
2023-02-13T18:09:09.320Z,100
2023-02-13T18:14:09.456Z,99.96289
2023-02-13T18:19:06.749Z,99.9502
2023-02-13T18:24:09.416Z,100
2023-02-13T18:29:10.911Z,99.91309
2023-02-13T18:34:09.342Z,100
2023-02-13T18:39:10.802Z,100
2023-02-13T18:44:07.880Z,100
2023-02-13T18:49:08.682Z,100
2023-02-13T18:54:07.286Z,99.92969
2023-02-13T18:59:08.401Z,100
2023-02-13T19:04:08.488Z,100
2023-02-13T19:09:10.531Z,100
2023-02-13T19:14:09.408Z,100
2023-02-13T19:19:07.997Z,100
2023-02-13T19:24:11.151Z,100
2023-02-13T19:29:07.745Z,100
2023-02-13T19:34:07.088Z,100
2023-02-13T19:39:08.736Z,100
2023-02-13T19:44:14.158Z,100
2023-02-13T19:49:06.846Z,100
2023-02-13T19:54:08.248Z,100
2023-02-13T19:59:06.927Z,100
2023-02-13T20:04:06.868Z,100
2023-02-13T20:13:47.155Z,100
2023-02-13T20:18:45.052Z,100
2023-02-13T20:23:45.532Z,100
2023-02-13T20:28:46.610Z,100
2023-02-13T20:33:48.559Z,100
2023-02-13T20:38:44.968Z,100
2023-02-13T20:43:45.864Z,100
2023-02-13T20:48:47.415Z,100
2023-02-13T20:53:45.320Z,100
2023-02-13T20:58:54.480Z,100
2023-02-13T21:03:47.554Z,100
2023-02-13T21:08:47.114Z,100
2023-02-13T21:13:44.845Z,100
2023-02-13T21:18:45.303Z,100
2023-02-13T21:23:47.416Z,100
2023-02-13T21:28:46.021Z,100
2023-02-13T21:33:47.694Z,100
2023-02-13T21:38:47.591Z,100
2023-02-13T21:43:46.538Z,100
2023-02-13T21:48:47.757Z,100
2023-02-13T21:53:48.045Z,100
2023-02-13T21:58:50.250Z,100
2023-02-13T22:04:00.845Z,100
2023-02-13T22:08:47.935Z,100
2023-02-13T22:13:54.451Z,100
2023-02-13T22:18:46.016Z,100
2023-02-13T22:24:06.772Z,100
2023-02-13T22:28:45.878Z,100
2023-02-13T22:33:52.366Z,100
2023-02-13T22:38:46.209Z,100
2023-02-13T22:43:45.097Z,100
2023-02-13T22:53:48.117Z,100
2023-02-13T22:58:45.905Z,100
2023-02-13T23:03:44.837Z,100
2023-02-13T23:08:47.808Z,100
2023-02-13T23:13:49.170Z,100
2023-02-13T23:18:44.907Z,100
2023-02-13T23:23:47.448Z,100
2023-02-13T23:28:51.787Z,100
2023-02-13T23:33:44.880Z,100
2023-02-13T23:38:44.669Z,100
2023-02-13T23:43:46.498Z,100
2023-02-13T23:48:45.837Z,100
2023-02-13T23:53:47.685Z,100
2023-02-13T23:58:44.625Z,100
